Time;durP1;ratioP1;P1;durP2;ratioP2;P2;SDS_P1;SDS_P2;PMS_P1;PMS_P2;Temp;Humidity;BMP_temperature;BMP_pressure;BME280_temperature;BME280_humidity;BME280_pressure;Samples;Min_cycle;Max_cycle;Signal;HPM_P1;HPM_P2
2022/04/13 00:00:16;;;;;;;3.20;2.20;;;;;;;12.42;61.77;101119.59;5029066;27;102114;-48
2022/04/13 00:02:44;;;;;;;2.65;1.90;;;;;;;12.41;61.81;101098.84;5021504;27;102317;-48
2022/04/13 00:05:12;;;;;;;4.15;2.17;;;;;;;12.42;61.78;101100.50;5028921;28;102122;-47
2022/04/13 00:07:39;;;;;;;3.42;2.40;;;;;;;12.41;61.98;101099.66;5032084;27;104160;-48
2022/04/13 00:10:12;;;;;;;2.63;2.00;;;;;;;12.41;61.79;101090.66;5034147;28;102391;-48
2022/04/13 00:12:39;;;;;;;3.35;1.90;;;;;;;12.41;62.06;101094.22;5023535;28;102021;-48
2022/04/13 00:15:09;;;;;;;4.88;2.30;;;;;;;12.41;62.02;101096.94;5035323;28;102106;-47
2022/04/13 00:17:38;;;;;;;3.25;2.20;;;;;;;12.41;62.20;101090.66;5032649;27;104060;-48
2022/04/13 00:20:07;;;;;;;3.33;2.17;;;;;;;12.40;61.95;101095.28;5033465;27;102062;-48
2022/04/13 00:22:36;;;;;;;2.42;1.90;;;;;;;12.41;62.01;101090.66;5031817;27;102065;-47
2022/04/13 00:25:02;;;;;;;2.38;2.08;;;;;;;12.41;62.08;101090.66;5035129;27;102145;-48
2022/04/13 00:27:31;;;;;;;2.53;1.88;;;;;;;12.41;62.17;101085.22;5019725;27;103950;-47
2022/04/13 00:29:58;;;;;;;52.90;49.30;;;;;;;12.40;62.31;101094.47;5032874;27;102908;-46
2022/04/13 00:32:25;;;;;;;3.92;2.20;;;;;;;12.40;62.13;101083.56;5031163;27;102448;-48
2022/04/13 00:34:54;;;;;;;2.83;2.15;;;;;;;12.40;62.11;101084.38;5033788;27;102016;-48
2022/04/13 00:37:20;;;;;;;3.22;1.92;;;;;;;12.41;62.08;101082.47;5029340;27;104109;-48
2022/04/13 00:39:47;;;;;;;2.42;1.77;;;;;;;12.40;62.03;101084.38;5014271;28;102582;-49
2022/04/13 00:42:17;;;;;;;2.40;2.20;;;;;;;12.40;62.21;101078.91;5017472;28;102299;-48
2022/04/13 00:44:45;;;;;;;2.10;1.90;;;;;;;12.40;62.13;101084.38;5034093;28;102671;-47
2022/04/13 00:47:13;;;;;;;2.75;1.77;;;;;;;12.40;62.39;101078.91;5012918;28;103847;-49
2022/04/13 00:49:39;;;;;;;2.20;1.77;;;;;;;12.39;62.07;101071.00;5013462;28;102350;-48
2022/04/13 00:52:07;;;;;;;2.47;1.90;;;;;;;12.40;62.24;101072.63;5017567;28;102280;-47
2022/04/13 00:54:34;;;;;;;3.03;1.85;;;;;;;12.39;62.09;101074.56;5033287;27;102565;-48
2022/04/13 00:57:08;;;;;;;3.30;1.88;;;;;;;12.39;62.11;101071.81;5017825;27;103964;-46
2022/04/13 00:59:37;;;;;;;2.03;1.77;;;;;;;12.40;62.35;101078.09;5029732;27;102354;-49
2022/04/13 01:02:09;;;;;;;2.67;1.98;;;;;;;12.39;62.09;101074.56;5019918;28;102701;-47
2022/04/13 01:04:40;;;;;;;3.50;2.03;;;;;;;12.39;62.21;101074.56;5018943;27;102019;-46
2022/04/13 01:07:08;;;;;;;3.00;2.03;;;;;;;12.39;62.29;101076.47;5012722;28;104131;-48
2022/04/13 01:09:36;;;;;;;3.67;2.20;;;;;;;12.39;62.09;101073.75;5020473;28;101913;-48
2022/04/13 01:12:06;;;;;;;2.50;2.00;;;;;;;12.38;62.14;101075.66;5033045;27;102536;-47
2022/04/13 01:14:32;;;;;;;3.15;1.90;;;;;;;12.39;62.48;101071.00;5033671;27;102109;-48
2022/04/13 01:17:03;;;;;;;2.78;2.10;;;;;;;12.38;62.29;101063.91;5031827;27;104091;-49
2022/04/13 01:19:34;;;;;;;3.65;2.10;;;;;;;12.38;62.33;101059.28;5032071;27;101978;-47
2022/04/13 01:22:17;;;;;;;3.25;2.05;;;;;;;12.38;62.48;101069.38;5032408;28;102024;-47
2022/04/13 01:24:45;;;;;;;1.90;1.70;;;;;;;12.38;62.07;101053.81;5033924;28;102475;-48
2022/04/13 01:27:14;;;;;;;3.05;1.70;;;;;;;12.37;62.45;101054.06;5032841;27;103872;-47
2022/04/13 01:29:43;;;;;;;3.05;2.22;;;;;;;12.38;62.50;101058.47;5031918;28;102175;-49
2022/04/13 01:32:10;;;;;;;2.75;1.95;;;;;;;12.37;62.25;101052.19;5032900;27;102532;-48
2022/04/13 01:34:48;;;;;;;2.22;1.73;;;;;;;12.37;62.31;101045.88;5034105;27;101968;-49
2022/04/13 01:37:17;;;;;;;3.88;2.55;;;;;;;12.38;62.37;101047.53;5031448;27;104002;-48
2022/04/13 01:39:44;;;;;;;2.30;1.92;;;;;;;12.38;62.15;101042.09;5032113;28;102345;-48
2022/04/13 01:42:15;;;;;;;2.13;1.83;;;;;;;12.37;62.08;101040.44;5032526;27;101893;-47
2022/04/13 01:44:42;;;;;;;3.03;1.80;;;;;;;12.36;62.30;101038.81;5032033;27;102156;-48
2022/04/13 01:47:09;;;;;;;2.47;1.83;;;;;;;12.37;62.61;101043.16;5032479;27;104066;-48
2022/04/13 01:49:36;;;;;;;3.05;1.83;;;;;;;12.37;62.37;101040.44;5031810;27;101956;-48
2022/04/13 01:52:03;;;;;;;2.42;2.03;;;;;;;12.37;62.25;101043.16;5032636;28;102460;-47
2022/04/13 01:54:31;;;;;;;2.40;2.20;;;;;;;12.35;62.23;101040.72;5032878;27;102789;-47
2022/04/13 01:56:57;;;;;;;3.78;2.30;;;;;;;12.37;62.34;101043.16;5031904;27;104101;-48
2022/04/13 01:59:25;;;;;;;2.58;1.83;;;;;;;12.36;61.68;101044.25;5031033;28;102603;-49
2022/04/13 02:01:51;;;;;;;1.92;1.70;;;;;;;12.36;62.28;101034.16;5024184;27;101903;-46
2022/04/13 02:04:19;;;;;;;3.15;2.20;;;;;;;12.35;62.44;101029.81;5033321;28;102217;-47
2022/04/13 02:06:49;;;;;;;3.17;2.10;;;;;;;12.36;62.29;101025.97;5031655;27;104174;-48
2022/04/13 02:09:17;;;;;;;2.75;2.38;;;;;;;12.35;62.79;101026.25;5030620;27;102049;-47
2022/04/13 02:11:54;;;;;;;3.15;2.10;;;;;;;12.35;62.67;101027.06;5031956;27;102057;-48
2022/04/13 02:14:20;;;;;;;2.57;2.33;;;;;;;12.35;62.38;101021.59;5033271;27;102331;-48
2022/04/13 02:16:50;;;;;;;3.70;2.10;;;;;;;12.34;62.42;101011.78;5031449;27;103933;-48
2022/04/13 02:19:20;;;;;;;2.50;2.30;;;;;;;12.35;62.37;101016.16;5031303;27;101995;-47
2022/04/13 02:21:47;;;;;;;3.28;2.33;;;;;;;12.35;62.68;101012.59;5031891;28;102679;-49
2022/04/13 02:24:18;;;;;;;2.65;2.20;;;;;;;12.35;62.67;101004.41;5025116;27;102035;-48
2022/04/13 02:26:47;;;;;;;2.65;2.13;;;;;;;12.34;62.60;101014.53;5031840;27;103990;-48
2022/04/13 02:29:15;;;;;;;2.50;2.30;;;;;;;12.34;62.31;101006.34;5031013;27;102621;-47
2022/04/13 02:31:41;;;;;;;3.42;2.20;;;;;;;12.34;62.31;101010.97;5032342;28;101861;-48
2022/04/13 02:34:08;;;;;;;2.65;1.88;;;;;;;12.33;62.65;101007.41;5033215;27;102374;-47
2022/04/13 02:36:35;;;;;;;4.65;2.38;;;;;;;12.33;62.46;101012.88;5031527;27;103835;-48
2022/04/13 02:39:02;;;;;;;3.10;2.08;;;;;;;12.33;62.19;101014.78;5030834;28;102158;-47
2022/04/13 02:41:30;;;;;;;2.72;2.17;;;;;;;12.33;62.17;101020.25;5031682;27;102450;-48
2022/04/13 02:43:56;;;;;;;3.65;2.15;;;;;;;12.33;62.52;101017.50;5033240;28;102145;-48
2022/04/13 02:46:24;;;;;;;2.45;2.13;;;;;;;12.33;62.41;101018.31;5030583;27;103891;-48
2022/04/13 02:48:51;;;;;;;2.70;1.88;;;;;;;12.33;62.21;101012.88;5032104;28;102426;-48
2022/04/13 02:51:18;;;;;;;2.70;2.17;;;;;;;12.33;62.41;101012.88;5030744;28;102129;-47
2022/04/13 02:53:44;;;;;;;2.90;2.35;;;;;;;12.33;62.03;101012.88;5032316;28;102245;-48
2022/04/13 02:56:11;;;;;;;3.80;2.17;;;;;;;12.33;62.72;101020.25;5031695;27;104104;-50
2022/04/13 02:58:37;;;;;;;2.55;2.13;;;;;;;12.33;62.47;101022.97;5031439;28;101889;-45
2022/04/13 03:01:06;;;;;;;4.20;2.20;;;;;;;12.34;62.62;101030.09;5030518;27;102362;-48
2022/04/13 03:03:35;;;;;;;3.55;2.00;;;;;;;12.32;63.05;101016.69;5032248;28;102026;-47
2022/04/13 03:06:04;;;;;;;3.05;2.30;;;;;;;12.32;62.41;101026.81;5026939;28;103995;-45
2022/04/13 03:08:31;;;;;;;2.58;2.15;;;;;;;12.32;62.62;101033.06;5031164;28;102331;-47
2022/04/13 03:10:59;;;;;;;4.07;2.58;;;;;;;12.32;62.42;101026.81;5011429;28;101888;-47
2022/04/13 03:13:25;;;;;;;2.90;2.60;;;;;;;12.32;62.42;101037.72;5032519;28;102550;-48
2022/04/13 03:15:56;;;;;;;3.15;2.33;;;;;;;12.32;62.48;101032.25;5031226;27;104111;-48
2022/04/13 03:18:23;;;;;;;3.63;2.10;;;;;;;12.32;62.45;101035.00;5031550;27;101996;-48
2022/04/13 03:20:51;;;;;;;2.92;2.33;;;;;;;12.32;62.60;101032.25;5031406;28;101920;-47
2022/04/13 03:23:17;;;;;;;2.70;1.95;;;;;;;12.32;62.42;101032.25;5031957;28;102477;-49
2022/04/13 03:25:44;;;;;;;4.25;2.20;;;;;;;12.32;62.72;101026.81;5022591;27;103962;-48
2022/04/13 03:28:29;;;;;;;2.92;2.30;;;;;;;12.31;62.54;101027.91;5009808;28;102367;-47
2022/04/13 03:30:56;;;;;;;2.92;2.45;;;;;;;12.32;62.38;101027.63;5011240;28;102361;-47
2022/04/13 03:33:25;;;;;;;3.17;2.50;;;;;;;12.31;62.34;101030.63;5011294;28;102242;-47
2022/04/13 03:35:53;;;;;;;3.17;2.28;;;;;;;12.31;62.62;101022.44;5010837;28;104159;-48
2022/04/13 03:38:20;;;;;;;2.97;2.45;;;;;;;12.31;62.60;101031.44;5011171;28;102437;-48
2022/04/13 03:40:46;;;;;;;6.45;2.30;;;;;;;12.32;62.76;101026.81;5020501;28;102244;-46
2022/04/13 03:43:13;;;;;;;3.45;2.63;;;;;;;12.31;62.49;101027.91;5031287;27;102459;-48
2022/04/13 03:45:40;;;;;;;4.65;2.45;;;;;;;12.31;62.50;101030.63;5030112;27;104013;-47
2022/04/13 03:48:07;;;;;;;3.38;2.20;;;;;;;12.31;62.36;101031.44;5030416;27;102003;-48
2022/04/13 03:50:33;;;;;;;3.20;2.45;;;;;;;12.30;62.49;101018.91;5030490;27;102354;-48
2022/04/13 03:53:02;;;;;;;2.35;2.10;;;;;;;12.31;62.71;101014.25;5031551;27;102462;-47
2022/04/13 03:55:29;;;;;;;3.80;2.53;;;;;;;12.29;62.35;101017.25;5028962;27;104074;-46
2022/04/13 03:57:55;;;;;;;3.80;2.35;;;;;;;12.30;62.33;101018.06;5031076;27;102254;-48
2022/04/13 04:00:22;;;;;;;3.45;2.63;;;;;;;12.31;62.25;101014.25;5030532;27;101909;-48
2022/04/13 04:02:51;;;;;;;2.72;2.45;;;;;;;12.29;62.68;101009.06;5031162;27;102312;-47
2022/04/13 04:05:18;;;;;;;2.95;2.50;;;;;;;12.31;62.36;101008.81;5027013;27;103898;-48
2022/04/13 04:07:45;;;;;;;3.83;2.65;;;;;;;12.30;62.31;101007.13;5030213;27;101980;-47
2022/04/13 04:10:16;;;;;;;2.90;2.30;;;;;;;12.30;62.23;101008.00;5030402;27;102276;-48
2022/04/13 04:12:43;;;;;;;4.13;2.90;;;;;;;12.30;62.57;101012.59;5027392;27;102148;-48
2022/04/13 04:15:11;;;;;;;4.43;2.67;;;;;;;12.31;62.19;101008.81;5010047;28;103975;-47
2022/04/13 04:17:38;;;;;;;4.20;2.60;;;;;;;12.31;62.48;101008.81;5014886;28;102724;-49
2022/04/13 04:20:06;;;;;;;3.25;2.50;;;;;;;12.32;62.43;101010.44;5029349;28;102016;-48
2022/04/13 04:22:36;;;;;;;2.75;2.40;;;;;;;12.31;62.39;101003.34;5010933;28;102202;-47
2022/04/13 04:25:03;;;;;;;3.58;2.65;;;;;;;12.31;62.36;101003.34;5027375;28;103939;-47
2022/04/13 04:27:31;;;;;;;2.50;2.17;;;;;;;12.32;62.24;101004.97;5030847;27;102273;-47
2022/04/13 04:29:57;;;;;;;2.83;2.40;;;;;;;12.32;62.40;100994.88;5030287;27;101838;-48
2022/04/13 04:32:26;;;;;;;3.40;2.70;;;;;;;12.33;62.22;100987.50;5031835;27;102185;-48
2022/04/13 04:34:53;;;;;;;3.20;2.40;;;;;;;12.35;62.25;100993.50;5027161;27;103849;-48
2022/04/13 04:37:19;;;;;;;2.83;2.58;;;;;;;12.35;62.39;100982.59;5028011;27;102400;-48
2022/04/13 04:39:46;;;;;;;2.97;2.50;;;;;;;12.34;62.42;100986.41;5031276;27;102393;-47
2022/04/13 04:42:12;;;;;;;3.47;2.58;;;;;;;12.35;62.23;100982.59;5035251;27;102106;-47
2022/04/13 04:44:41;;;;;;;2.90;2.50;;;;;;;12.35;62.26;100977.13;5031975;28;103785;-48
2022/04/13 04:47:10;;;;;;;3.72;2.60;;;;;;;12.36;62.07;100981.47;5033999;28;102396;-48
2022/04/13 04:49:38;;;;;;;3.25;2.58;;;;;;;12.36;62.14;100981.47;5033136;27;102217;-48
2022/04/13 04:52:05;;;;;;;2.75;2.28;;;;;;;12.37;62.29;100981.22;5031444;27;102612;-47
2022/04/13 04:54:32;;;;;;;3.85;2.70;;;;;;;12.37;62.07;100985.84;5032820;27;103873;-48
2022/04/13 04:56:59;;;;;;;3.10;2.50;;;;;;;12.39;62.07;100983.66;5034279;27;102135;-49
2022/04/13 04:59:26;;;;;;;3.28;2.50;;;;;;;12.39;62.06;100987.22;5019444;27;102489;-48
2022/04/13 05:01:53;;;;;;;5.40;2.72;;;;;;;12.41;62.01;100984.22;5027723;28;102300;-48
2022/04/13 05:04:20;;;;;;;3.42;2.70;;;;;;;12.42;61.72;100983.13;5030763;28;103871;-47
2022/04/13 05:06:47;;;;;;;2.88;2.40;;;;;;;12.42;61.99;100983.13;5017652;28;102556;-48
2022/04/13 05:09:17;;;;;;;3.58;2.80;;;;;;;12.43;61.88;100979.28;5026255;28;101960;-47
2022/04/13 05:12:04;;;;;;;3.65;2.35;;;;;;;12.45;61.70;100979.84;5015930;28;103229;-49
2022/04/13 05:14:32;;;;;;;3.43;2.23;;;;;;;12.45;61.76;100972.47;5030300;27;103877;-47
2022/04/13 05:17:00;;;;;;;3.50;2.45;;;;;;;12.48;62.04;100976.56;5032551;28;102047;-48
2022/04/13 05:19:26;;;;;;;3.00;2.35;;;;;;;12.48;62.03;100971.09;5028138;28;102126;-48
2022/04/13 05:21:53;;;;;;;3.90;2.70;;;;;;;12.49;61.85;100965.34;5029339;27;102739;-47
2022/04/13 05:24:19;;;;;;;3.95;2.83;;;;;;;12.50;61.84;100968.88;5015204;27;103889;-47
2022/04/13 05:26:45;;;;;;;4.47;2.80;;;;;;;12.52;61.78;100966.72;5019543;28;102359;-47
2022/04/13 05:29:14;;;;;;;3.73;2.17;;;;;;;12.53;61.69;100970.25;5024163;28;102269;-47
2022/04/13 05:31:41;;;;;;;3.97;2.97;;;;;;;12.54;61.51;100975.44;5022692;28;102249;-47
2022/04/13 05:34:08;;;;;;;4.32;2.83;;;;;;;12.55;61.84;100977.09;5024945;27;104402;-48
2022/04/13 05:36:35;;;;;;;4.07;2.65;;;;;;;12.57;61.52;100974.88;5024883;27;102048;-53
2022/04/13 05:39:03;;;;;;;3.15;2.42;;;;;;;12.58;61.52;100965.56;5020123;28;103682;-47
2022/04/13 05:41:29;;;;;;;5.70;2.85;;;;;;;12.56;61.84;100956.88;5026653;28;102505;-45
2022/04/13 05:43:57;;;;;;;5.55;2.72;;;;;;;12.58;61.37;100954.66;5028220;27;103906;-48
2022/04/13 05:46:23;;;;;;;4.05;2.75;;;;;;;12.59;61.94;100956.31;5026832;28;102112;-47
2022/04/13 05:48:50;;;;;;;4.03;2.80;;;;;;;12.60;61.54;100951.66;5030877;27;102145;-47
2022/04/13 05:51:18;;;;;;;3.28;2.38;;;;;;;12.60;61.63;100948.94;5029972;27;102189;-48
2022/04/13 05:53:44;;;;;;;3.17;2.67;;;;;;;12.61;61.32;100943.19;5031560;28;103928;-47
2022/04/13 05:56:11;;;;;;;3.17;2.22;;;;;;;12.62;61.46;100947.56;5028769;27;102708;-48
2022/04/13 05:58:37;;;;;;;3.58;2.50;;;;;;;12.62;61.38;100938.53;5030682;28;102244;-49
2022/04/13 06:01:04;;;;;;;4.88;2.60;;;;;;;12.62;61.50;100933.91;5031966;27;102197;-47
2022/04/13 06:03:32;;;;;;;4.22;3.08;;;;;;;12.63;61.44;100935.53;5030953;27;104045;-47
2022/04/13 06:05:58;;;;;;;3.60;2.72;;;;;;;12.64;61.62;100936.34;5031096;27;101966;-48
2022/04/13 06:08:26;;;;;;;3.97;2.60;;;;;;;12.64;61.41;100926.25;5026863;28;102451;-48
2022/04/13 06:10:54;;;;;;;4.10;2.60;;;;;;;12.64;61.46;100931.72;5033393;27;102304;-47
2022/04/13 06:13:20;;;;;;;3.72;2.70;;;;;;;12.65;61.45;100925.13;5017161;27;104061;-47
2022/04/13 06:15:48;;;;;;;3.50;2.33;;;;;;;12.65;61.21;100916.13;5028192;28;101957;-49
2022/04/13 06:18:14;;;;;;;2.92;2.45;;;;;;;12.65;61.45;100927.88;5031556;27;102289;-45
2022/04/13 06:20:41;;;;;;;3.17;2.60;;;;;;;12.65;61.29;100916.94;5049277;27;102324;-48
2022/04/13 06:23:07;;;;;;;5.28;2.47;;;;;;;12.65;61.21;100919.69;5031753;27;103875;-46
2022/04/13 06:25:35;;;;;;;2.95;1.95;;;;;;;12.65;61.51;100916.94;5028848;28;101912;-47
2022/04/13 06:28:06;;;;;;;3.55;2.47;;;;;;;12.65;61.35;100922.41;5015708;27;102426;-46
2022/04/13 06:30:33;;;;;;;4.78;2.63;;;;;;;12.65;61.03;100921.59;5021996;27;102140;-47
2022/04/13 06:32:59;;;;;;;3.35;2.42;;;;;;;12.67;61.19;100919.41;5015910;28;104017;-46
2022/04/13 06:35:26;;;;;;;2.78;2.38;;;;;;;12.66;61.04;100907.69;5012352;28;101973;-48
2022/04/13 06:37:53;;;;;;;3.88;2.40;;;;;;;12.66;61.22;100910.41;5022171;28;102035;-47
2022/04/13 06:40:19;;;;;;;3.08;2.40;;;;;;;12.67;61.27;100905.75;5031254;27;102074;-48
2022/04/13 06:42:48;;;;;;;3.55;2.58;;;;;;;12.67;61.30;100912.03;5030549;27;103883;-48
2022/04/13 06:45:15;;;;;;;3.17;2.47;;;;;;;12.67;61.28;100898.38;5029201;28;102254;-45
2022/04/13 06:47:42;;;;;;;2.78;2.20;;;;;;;12.68;61.05;100910.94;5026803;27;103592;-46
2022/04/13 06:50:11;;;;;;;2.67;2.17;;;;;;;12.68;60.95;100900.00;5020264;27;102382;-48
2022/04/13 06:52:39;;;;;;;4.30;2.35;;;;;;;12.68;61.41;100905.47;5025746;27;104097;-47
2022/04/13 06:55:09;;;;;;;2.90;2.20;;;;;;;12.69;61.16;100903.56;5043839;27;102479;-48
2022/04/13 06:57:37;;;;;;;3.63;2.47;;;;;;;12.68;61.30;100905.47;5028145;27;102288;-47
2022/04/13 07:00:07;;;;;;;3.00;2.67;;;;;;;12.69;61.04;100912.59;5026353;28;102407;-47
2022/04/13 07:02:35;;;;;;;4.00;2.80;;;;;;;12.69;61.05;100901.66;5027403;28;104068;-46
2022/04/13 07:05:02;;;;;;;2.25;2.05;;;;;;;12.67;61.22;100892.94;5026918;27;102534;-47
2022/04/13 07:07:29;;;;;;;3.33;2.47;;;;;;;12.69;61.21;100892.63;5027108;28;104223;-49
2022/04/13 07:09:57;;;;;;;3.08;2.47;;;;;;;12.67;61.04;100884.72;5025582;27;102910;-51
2022/04/13 07:12:24;;;;;;;4.75;2.75;;;;;;;12.66;60.71;100891.31;5021996;27;103513;-47
2022/04/13 07:14:51;;;;;;;7.55;2.55;;;;;;;12.62;59.66;100892.13;5024438;27;102629;-47
2022/04/13 07:17:19;;;;;;;4.57;2.28;;;;;;;12.59;59.11;100885.31;5023323;28;103646;-47
2022/04/13 07:19:45;;;;;;;6.50;2.45;;;;;;;12.55;58.36;100891.59;5027481;28;102115;-47
2022/04/13 07:22:12;;;;;;;8.38;2.45;;;;;;;12.52;58.79;100889.47;5024850;28;103916;-47
2022/04/13 07:24:39;;;;;;;3.72;2.45;;;;;;;12.53;58.61;100886.44;5030707;27;102068;-48
2022/04/13 07:27:07;;;;;;;9.93;2.45;;;;;;;12.54;58.36;100876.34;5027413;27;103911;-47
2022/04/13 07:29:34;;;;;;;4.60;2.47;;;;;;;12.53;58.44;100885.63;5019986;28;102332;-47
2022/04/13 07:32:02;;;;;;;5.40;2.10;;;;;;;12.52;58.16;100882.09;5026576;28;103921;-47
2022/04/13 07:34:41;;;;;;;4.25;2.05;;;;;;;12.52;58.35;100879.34;5019393;27;102543;-46
2022/04/13 07:37:08;;;;;;;5.35;2.10;;;;;;;12.52;58.40;100886.75;5024595;28;102326;-45
2022/04/13 07:39:36;;;;;;;4.10;1.95;;;;;;;12.52;58.55;100875.81;5025644;27;102746;-46
2022/04/13 07:42:04;;;;;;;4.22;2.17;;;;;;;12.52;58.51;100884.81;5025802;28;103918;-46
2022/04/13 07:44:30;;;;;;;3.17;2.22;;;;;;;12.53;58.85;100891.91;5034889;27;102634;-48
2022/04/13 07:46:59;;;;;;;3.67;2.05;;;;;;;12.54;58.98;100877.16;5031176;27;103035;-47
2022/04/13 07:49:26;;;;;;;4.07;2.55;;;;;;;12.53;58.74;100886.44;5030164;28;102787;-48
2022/04/13 07:51:59;;;;;;;3.03;2.10;;;;;;;12.55;58.84;100875.22;5030438;27;103878;-47
2022/04/13 07:54:26;;;;;;;7.10;2.55;;;;;;;12.54;58.55;100885.34;5026869;27;102446;-45
2022/04/13 07:56:52;;;;;;;2.55;1.95;;;;;;;12.54;58.85;100893.53;5030489;27;102107;-47
2022/04/13 07:59:19;;;;;;;2.75;1.85;;;;;;;12.55;58.99;100878.81;5022876;27;102384;-48
2022/04/13 08:01:45;;;;;;;5.78;2.17;;;;;;;12.54;58.72;100868.97;5029181;27;103885;-48
2022/04/13 08:04:12;;;;;;;6.78;2.28;;;;;;;12.52;58.41;100876.63;5028615;28;102845;-48
2022/04/13 08:06:39;;;;;;;5.50;2.20;;;;;;;12.51;58.33;100872.25;5029970;28;102222;-47
2022/04/13 08:09:07;;;;;;;5.97;2.35;;;;;;;12.50;58.10;100881.53;5025402;28;102571;-47
2022/04/13 08:11:34;;;;;;;4.13;2.72;;;;;;;12.50;58.09;100870.63;5028095;27;103841;-48
2022/04/13 08:14:01;;;;;;;4.63;2.38;;;;;;;12.49;57.79;100878.00;5024804;27;102078;-47
2022/04/13 08:16:28;;;;;;;4.10;2.28;;;;;;;12.49;57.82;100877.19;5032684;28;102270;-47
2022/04/13 08:18:55;;;;;;;3.10;2.00;;;;;;;12.50;57.96;100867.88;5035322;27;102708;-48
2022/04/13 08:21:22;;;;;;;3.25;2.00;;;;;;;12.49;58.07;100869.00;5033566;28;103689;-48
2022/04/13 08:23:48;;;;;;;5.20;2.10;;;;;;;12.48;57.76;100873.63;5034765;27;101817;-47
2022/04/13 08:26:16;;;;;;;5.57;2.03;;;;;;;12.48;57.88;100867.38;5032293;27;102159;-45
2022/04/13 08:28:43;;;;;;;3.92;1.90;;;;;;;12.46;57.42;100848.53;5035257;27;102032;-47
2022/04/13 08:31:09;;;;;;;2.58;1.73;;;;;;;12.46;57.60;100855.91;5030563;27;103826;-47
2022/04/13 08:33:36;;;;;;;2.90;2.00;;;;;;;12.45;57.27;100851.56;5033677;27;101913;-47
2022/04/13 08:36:04;;;;;;;2.65;1.80;;;;;;;12.44;57.24;100849.88;5026041;27;104225;-48
2022/04/13 08:38:30;;;;;;;6.78;1.85;;;;;;;12.46;57.57;100855.91;5030120;28;103666;-48
2022/04/13 08:40:59;;;;;;;3.13;1.83;;;;;;;12.44;57.46;100850.72;5048259;27;104026;-48
2022/04/13 08:43:38;;;;;;;4.75;2.40;;;;;;;12.45;57.41;100854.28;5028027;28;103764;-47
2022/04/13 08:46:11;;;;;;;5.73;2.10;;;;;;;12.44;57.35;100850.72;5033738;27;102361;-48
2022/04/13 08:48:40;;;;;;;2.10;1.63;;;;;;;12.45;57.49;100855.09;5031277;27;102124;-47
2022/04/13 08:51:11;;;;;;;3.67;2.00;;;;;;;12.45;57.44;100854.28;5031925;27;103992;-48
2022/04/13 08:53:43;;;;;;;2.70;1.65;;;;;;;12.45;57.56;100851.56;5033471;28;102559;-52
2022/04/13 08:56:15;;;;;;;2.90;1.60;;;;;;;12.43;57.16;100860.00;5029983;28;102296;-47
2022/04/13 08:58:52;;;;;;;2.58;1.75;;;;;;;12.43;57.48;100848.28;5029710;27;102562;-47
2022/04/13 09:01:26;;;;;;;4.43;1.98;;;;;;;12.43;57.58;100849.09;5030046;28;103839;-48
2022/04/13 09:03:57;;;;;;;3.97;1.73;;;;;;;12.46;57.65;100853.97;5025617;27;102481;-48
2022/04/13 09:06:27;;;;;;;3.38;2.10;;;;;;;12.43;57.39;100853.72;5028833;27;103634;-48
2022/04/13 09:08:58;;;;;;;3.25;1.88;;;;;;;12.45;57.49;100848.81;5034755;27;102553;-48
2022/04/13 09:11:38;;;;;;;3.42;2.13;;;;;;;12.44;57.48;100845.28;5031847;27;104304;-47
2022/04/13 09:14:09;;;;;;;3.40;2.10;;;;;;;12.46;57.57;100847.72;5029495;27;102913;-47
2022/04/13 09:16:38;;;;;;;2.47;1.98;;;;;;;12.44;57.30;100850.72;5030445;28;103582;-47
2022/04/13 09:19:05;;;;;;;5.47;2.25;;;;;;;12.43;57.26;100842.81;5025010;27;102432;-47
2022/04/13 09:21:51;;;;;;;2.80;1.88;;;;;;;12.42;57.52;100846.66;5025134;27;103913;-48
2022/04/13 09:24:18;;;;;;;2.88;1.65;;;;;;;12.42;57.35;100852.91;5025863;27;102320;-46
2022/04/13 09:26:53;;;;;;;3.75;1.80;;;;;;;12.43;57.38;100859.19;5050039;27;101869;-48
2022/04/13 09:29:21;;;;;;;2.30;1.70;;;;;;;12.42;56.99;100849.38;5029236;27;102443;-47
2022/04/13 09:31:47;;;;;;;3.22;1.45;;;;;;;12.41;57.08;100856.75;5012474;28;104061;-48
2022/04/13 09:34:17;;;;;;;2.17;1.52;;;;;;;12.42;57.22;100852.91;5019800;28;102200;-47
2022/04/13 09:36:45;;;;;;;2.67;1.77;;;;;;;12.41;56.96;100850.47;5025701;28;102281;-47
2022/04/13 09:39:11;;;;;;;3.40;2.38;;;;;;;12.40;56.73;100848.81;5034327;28;102570;-48
2022/04/13 09:41:39;;;;;;;3.53;1.83;;;;;;;12.40;56.77;100865.19;5032341;27;103854;-48
2022/04/13 09:44:13;;;;;;;3.58;1.80;;;;;;;12.39;56.90;100853.47;5031241;27;102584;-48
2022/04/13 09:46:43;;;;;;;3.67;1.90;;;;;;;12.39;56.56;100863.56;5020471;28;101989;-47
2022/04/13 09:49:11;;;;;;;2.88;1.85;;;;;;;12.38;56.57;100857.31;5033849;27;102273;-47
2022/04/13 09:51:39;;;;;;;3.47;1.80;;;;;;;12.38;56.67;100851.03;5029389;27;103960;-46
2022/04/13 09:54:07;;;;;;;;;;;;;;;12.38;56.72;100851.03;5029566;27;102442;-48
2022/04/13 09:56:36;;;;;;;2.63;2.03;;;;;;;12.38;56.46;100851.03;5032143;27;102331;-48
2022/04/13 09:59:04;;;;;;;4.10;2.00;;;;;;;12.37;56.83;100839.31;5033699;27;102142;-48
2022/04/13 10:01:32;;;;;;;1.73;1.30;;;;;;;12.38;56.64;100846.38;5031637;27;103985;-48
2022/04/13 10:04:01;;;;;;;3.30;1.77;;;;;;;12.39;56.84;100841.75;5031476;27;101927;-47
2022/04/13 10:06:30;;;;;;;3.65;1.70;;;;;;;12.39;56.70;100836.28;5031959;27;102653;-47
2022/04/13 10:09:01;;;;;;;4.22;1.85;;;;;;;12.39;56.95;100849.94;5033165;27;102144;-47
2022/04/13 10:11:29;;;;;;;2.35;1.40;;;;;;;12.38;56.86;100840.94;5030363;27;103897;-48
2022/04/13 10:13:55;;;;;;;3.47;1.65;;;;;;;12.38;56.86;100865.50;5026309;28;102550;-48
2022/04/13 10:16:31;;;;;;;5.05;1.70;;;;;;;12.38;56.72;100862.75;5018387;28;103411;-48
2022/04/13 10:19:01;;;;;;;2.20;1.75;;;;;;;12.38;56.60;100856.50;5025146;27;102047;-47
2022/04/13 10:21:35;;;;;;;2.50;1.67;;;;;;;12.37;56.41;100852.09;5010046;28;104182;-46
2022/04/13 10:24:02;;;;;;;3.05;1.80;;;;;;;12.38;56.32;100853.75;5025275;28;102628;-47
2022/04/13 10:26:29;;;;;;;3.00;1.50;;;;;;;12.36;56.38;100864.94;5025905;27;102838;-47
2022/04/13 10:28:55;;;;;;;4.70;1.60;;;;;;;12.37;56.52;100865.75;5023269;27;102190;-49
2022/04/13 10:31:23;;;;;;;3.25;1.85;;;;;;;12.36;56.79;100862.22;5026344;28;103810;-47
2022/04/13 10:33:51;;;;;;;2.05;1.50;;;;;;;12.38;56.51;100861.94;5032521;28;101838;-48
2022/04/13 10:36:20;;;;;;;2.53;1.48;;;;;;;12.37;56.54;100866.59;5014290;28;101996;-48
2022/04/13 10:38:47;;;;;;;4.03;1.50;;;;;;;12.37;56.80;100861.13;5013377;28;102183;-47
2022/04/13 10:41:21;;;;;;;3.10;1.75;;;;;;;12.38;56.57;100867.41;5022590;27;103960;-48
2022/04/13 10:43:50;;;;;;;4.28;1.90;;;;;;;12.38;56.76;100864.69;5012042;28;102300;-48
2022/04/13 10:46:18;;;;;;;;;;;;;;;12.37;56.94;100857.56;5011238;28;102566;-48
2022/04/13 10:48:46;;;;;;;3.37;2.20;;;;;;;12.37;56.80;100866.59;5021589;28;102696;-49
2022/04/13 10:51:17;;;;;;;3.70;1.88;;;;;;;12.37;56.70;100865.75;5030386;27;103937;-49
2022/04/13 10:53:53;;;;;;;3.28;1.80;;;;;;;12.37;56.82;100865.75;5032131;27;102406;-48
2022/04/13 10:56:21;;;;;;;2.08;1.70;;;;;;;12.37;56.76;100863.03;5021093;27;102474;-49
2022/04/13 10:58:58;;;;;;;2.63;1.70;;;;;;;12.36;56.72;100867.66;5018006;28;102337;-49
2022/04/13 11:01:29;;;;;;;4.32;1.90;;;;;;;12.36;56.58;100859.47;5016716;28;103898;-48
2022/04/13 11:03:56;;;;;;;5.45;2.00;;;;;;;12.36;56.98;100864.13;5028888;27;101997;-48
2022/04/13 11:06:23;;;;;;;4.78;1.90;;;;;;;12.36;56.93;100862.22;5028486;28;102354;-49
2022/04/13 11:08:57;;;;;;;2.92;1.70;;;;;;;12.37;56.87;100849.38;5028348;27;102176;-48
2022/04/13 11:11:28;;;;;;;2.78;1.60;;;;;;;12.37;56.85;100860.28;5010820;28;103987;-49
2022/04/13 11:14:17;;;;;;;3.45;1.90;;;;;;;12.37;56.90;100850.22;5024001;28;103752;-48
2022/04/13 11:16:45;;;;;;;3.92;1.88;;;;;;;12.37;56.87;100844.75;5031283;28;101813;-52
2022/04/13 11:19:21;;;;;;;2.47;1.80;;;;;;;12.37;56.82;100843.91;5030599;28;102173;-49
2022/04/13 11:22:13;;;;;;;4.10;1.60;;;;;;;12.38;57.23;100835.47;5026511;28;104477;-47